Time;durP1;ratioP1;P1;durP2;ratioP2;P2;SDS_P1;SDS_P2;PMS_P1;PMS_P2;Temp;Humidity;BMP_temperature;BMP_pressure;BME280_temperature;BME280_humidity;BME280_pressure;Samples;Min_cycle;Max_cycle;Signal;HPM_P1;HPM_P2
2021/09/28 00:08:54;;;;;;;8.95;2.20;;;13.00;99.90;;;;;;6740230;88;20197;-78
2021/09/28 00:18:55;;;;;;;7.78;2.03;;;12.70;99.90;;;;;;6735414;88;20328;-77
2021/09/28 00:28:56;;;;;;;6.12;1.52;;;12.70;99.90;;;;;;6727216;88;20232;-78
2021/09/28 00:38:56;;;;;;;6.65;1.65;;;12.70;99.90;;;;;;6722657;88;20357;-77
2021/09/28 00:48:57;;;;;;;7.83;1.67;;;12.70;99.90;;;;;;6722810;88;20189;-77
2021/09/28 00:59:00;;;;;;;5.22;1.52;;;12.50;99.90;;;;;;6725282;88;20635;-77
2021/09/28 01:09:01;;;;;;;6.25;1.90;;;12.30;99.90;;;;;;6722834;88;20697;-78
2021/09/28 01:19:02;;;;;;;6.18;1.65;;;12.40;99.90;;;;;;6738014;88;20226;-77
2021/09/28 01:29:04;;;;;;;10.43;2.12;;;12.20;99.90;;;;;;6736621;88;20185;-77
2021/09/28 01:39:05;;;;;;;6.57;1.85;;;12.10;99.90;;;;;;6728245;88;21043;-77
2021/09/28 01:49:08;;;;;;;5.95;1.77;;;12.10;99.90;;;;;;6729878;88;20333;-77
2021/09/28 01:59:08;;;;;;;5.85;1.62;;;12.00;99.90;;;;;;6738919;88;22525;-77
2021/09/28 02:09:09;;;;;;;9.73;1.67;;;12.00;99.90;;;;;;6740073;88;20358;-77
2021/09/28 02:19:11;;;;;;;11.85;1.95;;;11.90;99.90;;;;;;6722444;88;20528;-77
2021/09/28 02:29:11;;;;;;;4.87;1.95;;;11.70;99.90;;;;;;6745985;88;20690;-78
2021/09/28 02:39:12;;;;;;;5.12;1.45;;;11.60;99.90;;;;;;6741486;88;20192;-79
2021/09/28 02:49:14;;;;;;;7.37;1.20;;;11.60;99.90;;;;;;6739010;88;20753;-79
2021/09/28 02:59:14;;;;;;;5.80;0.90;;;11.90;99.90;;;;;;6744855;88;20190;-76
2021/09/28 03:09:15;;;;;;;8.32;1.50;;;12.00;99.90;;;;;;6743744;88;20195;-76
2021/09/28 03:19:16;;;;;;;2.53;0.67;;;12.10;99.90;;;;;;6744232;88;20718;-77
2021/09/28 03:29:17;;;;;;;6.35;1.08;;;12.00;99.90;;;;;;6743466;88;20548;-77
2021/09/28 03:39:17;;;;;;;5.65;0.95;;;12.00;99.90;;;;;;6731245;88;20660;-76
2021/09/28 03:49:18;;;;;;;4.72;1.20;;;11.90;99.90;;;;;;6743745;88;20176;-77
2021/09/28 03:59:19;;;;;;;8.27;1.52;;;12.00;99.90;;;;;;6740238;88;20237;-77
2021/09/28 04:09:19;;;;;;;7.60;1.45;;;11.90;99.90;;;;;;6741746;88;20219;-77
2021/09/28 04:19:20;;;;;;;5.60;1.48;;;11.60;99.90;;;;;;6740646;88;20199;-79
2021/09/28 04:29:20;;;;;;;9.15;1.55;;;11.60;99.90;;;;;;6746102;88;20223;-77
2021/09/28 04:39:21;;;;;;;8.25;1.83;;;11.60;99.90;;;;;;6757236;88;20216;-79
2021/09/28 04:49:21;;;;;;;5.82;1.75;;;11.40;99.90;;;;;;6735953;88;20571;-76
2021/09/28 04:59:22;;;;;;;6.93;1.62;;;11.30;99.90;;;;;;6730579;88;20236;-77
2021/09/28 05:09:22;;;;;;;6.00;1.70;;;11.20;99.90;;;;;;6747178;88;20348;-77
2021/09/28 05:19:23;;;;;;;3.90;1.40;;;11.10;99.90;;;;;;6750107;88;20188;-77
2021/09/28 05:29:24;;;;;;;12.68;2.10;;;11.20;99.90;;;;;;6745873;88;20199;-77
2021/09/28 05:39:24;;;;;;;8.82;1.48;;;11.20;99.90;;;;;;6737671;88;20212;-78
2021/09/28 05:49:25;;;;;;;7.30;1.80;;;11.10;99.90;;;;;;6722837;88;20563;-77
2021/09/28 05:59:26;;;;;;;7.40;1.60;;;11.00;99.90;;;;;;6736810;88;20756;-77
2021/09/28 06:09:26;;;;;;;6.75;2.35;;;11.10;99.90;;;;;;6738395;88;20222;-77
2021/09/28 06:19:28;;;;;;;6.50;2.25;;;10.90;99.90;;;;;;6736521;88;20244;-78
2021/09/28 06:29:29;;;;;;;6.37;2.25;;;11.00;99.90;;;;;;6746216;88;20200;-78
2021/09/28 06:39:31;;;;;;;7.55;1.85;;;11.20;99.90;;;;;;6736511;88;20194;-77
2021/09/28 06:49:31;;;;;;;10.77;1.77;;;11.40;99.90;;;;;;6733303;88;20770;-77
2021/09/28 06:59:32;;;;;;;7.12;1.65;;;11.50;99.90;;;;;;6731656;88;20295;-77
2021/09/28 07:09:34;;;;;;;9.77;1.70;;;11.80;99.90;;;;;;6733065;88;20196;-77
2021/09/28 07:19:34;;;;;;;8.45;2.50;;;12.10;99.90;;;;;;6728375;88;20731;-77
2021/09/28 07:29:35;;;;;;;7.97;3.28;;;12.50;99.90;;;;;;6730977;88;20721;-77
2021/09/28 07:39:35;;;;;;;7.65;3.35;;;12.70;99.90;;;;;;6731493;88;20346;-77
2021/09/28 07:49:36;;;;;;;8.25;2.75;;;13.00;99.90;;;;;;6738090;88;20179;-77
2021/09/28 07:59:38;;;;;;;7.35;2.22;;;13.40;99.90;;;;;;6736646;88;20206;-77
2021/09/28 08:09:40;;;;;;;6.37;1.75;;;14.00;99.90;;;;;;6733968;88;20321;-77
2021/09/28 08:19:43;;;;;;;4.40;1.70;;;14.70;99.90;;;;;;6741564;88;20213;-79
2021/09/28 08:29:44;;;;;;;6.93;1.30;;;15.20;99.90;;;;;;6735696;88;20173;-78
2021/09/28 08:39:46;;;;;;;9.50;1.40;;;15.30;99.90;;;;;;6732318;88;20602;-78
2021/09/28 08:49:46;;;;;;;5.05;1.10;;;16.00;99.90;;;;;;6730405;88;21057;-77
2021/09/28 08:59:51;;;;;;;4.78;1.30;;;15.50;99.90;;;;;;6729991;88;20211;-77
2021/09/28 09:09:52;;;;;;;5.47;1.10;;;15.40;99.90;;;;;;6733358;88;20272;-78
2021/09/28 09:19:52;;;;;;;5.12;1.10;;;16.10;99.90;;;;;;6731524;88;20232;-78
2021/09/28 09:30:19;;;;;;;6.78;1.05;;;16.00;99.90;;;;;;6731609;88;20739;-78
2021/09/28 09:40:45;;;;;;;7.90;1.40;;;16.00;99.90;;;;;;6732370;88;20651;-77
2021/09/28 09:50:53;;;;;;;;;;;15.90;99.90;;;;;;6734726;88;20201;-78
2021/09/28 10:00:54;;;;;;;4.03;1.20;;;16.10;99.90;;;;;;6736923;88;20065;-77
2021/09/28 10:10:57;;;;;;;7.25;1.60;;;16.10;99.90;;;;;;6732273;88;20189;-81
2021/09/28 10:21:17;;;;;;;2.58;1.05;;;17.10;99.90;;;;;;6748148;87;21092;-78
2021/09/28 10:31:31;;;;;;;7.05;1.10;;;17.30;99.90;;;;;;6735905;88;20647;-80
2021/09/28 10:41:31;;;;;;;7.15;0.80;;;18.30;99.90;;;;;;6755897;88;20180;-81
2021/09/28 10:51:32;;;;;;;3.87;1.00;;;17.70;99.90;;;;;;6753556;88;20205;-79
2021/09/28 11:01:33;;;;;;;5.90;0.90;;;18.30;99.90;;;;;;6737868;88;20180;-79
2021/09/28 11:11:34;;;;;;;3.58;0.82;;;18.70;99.90;;;;;;6732900;88;20232;-79
2021/09/28 11:21:43;;;;;;;3.60;0.82;;;19.30;99.90;;;;;;6739620;88;20225;-78
2021/09/28 11:31:44;;;;;;;3.37;0.80;;;18.90;99.90;;;;;;6740778;88;20839;-79
2021/09/28 11:41:44;;;;;;;8.52;0.82;;;18.70;99.90;;;;;;6739358;88;20193;-79
2021/09/28 11:51:45;;;;;;;8.47;1.10;;;18.40;99.90;;;;;;6747517;87;20288;-79
2021/09/28 12:01:47;;;;;;;5.20;1.12;;;18.70;99.90;;;;;;6733213;88;20200;-78
2021/09/28 12:12:05;;;;;;;5.22;1.52;;;19.00;99.90;;;;;;6734378;88;20294;-78
2021/09/28 12:22:06;;;;;;;5.53;1.23;;;19.50;99.90;;;;;;6735222;88;20188;-79
2021/09/28 12:32:07;;;;;;;5.20;1.10;;;19.10;99.90;;;;;;6753752;87;20189;-78
2021/09/28 12:42:09;;;;;;;7.90;1.10;;;18.70;99.90;;;;;;6764026;87;20215;-78
2021/09/28 12:52:10;;;;;;;5.10;1.08;;;18.10;99.90;;;;;;6766168;87;20251;-78
2021/09/28 13:02:10;;;;;;;3.47;0.90;;;18.10;99.90;;;;;;6759745;87;20189;-78
2021/09/28 13:12:11;;;;;;;4.22;1.00;;;18.60;99.90;;;;;;6758797;88;20177;-80
2021/09/28 13:22:12;;;;;;;6.10;1.00;;;18.10;99.90;;;;;;6764906;87;20968;-78
2021/09/28 13:32:14;;;;;;;4.57;0.90;;;17.90;99.90;;;;;;6758050;87;20153;-78
2021/09/28 13:42:14;;;;;;;4.45;1.10;;;18.30;99.90;;;;;;6761555;87;21256;-78
2021/09/28 13:52:15;;;;;;;3.43;1.13;;;18.20;99.90;;;;;;6765560;87;20170;-79
2021/09/28 14:02:16;;;;;;;6.72;1.48;;;18.40;99.90;;;;;;6758605;88;20537;-80
2021/09/28 14:12:16;;;;;;;3.33;1.10;;;18.60;99.90;;;;;;6749503;87;20676;-79
2021/09/28 14:22:17;;;;;;;6.50;1.30;;;18.70;99.90;;;;;;6759188;88;20715;-81
2021/09/28 14:32:17;;;;;;;5.53;1.20;;;18.20;99.90;;;;;;6763119;88;20198;-79
2021/09/28 14:42:18;;;;;;;6.20;1.20;;;17.80;99.90;;;;;;6752864;87;20260;-78
2021/09/28 14:52:18;;;;;;;6.28;1.30;;;18.10;99.90;;;;;;6744475;88;20667;-78
2021/09/28 15:02:19;;;;;;;4.75;1.10;;;18.00;99.90;;;;;;6741211;88;20406;-79
2021/09/28 15:12:19;;;;;;;5.00;1.10;;;17.80;99.90;;;;;;6740616;88;20233;-78
2021/09/28 15:22:20;;;;;;;3.95;1.10;;;17.70;99.90;;;;;;6755476;88;20708;-78
2021/09/28 15:32:20;;;;;;;3.87;1.00;;;17.60;99.90;;;;;;6755383;87;20191;-78
2021/09/28 15:42:21;;;;;;;5.45;1.15;;;17.40;99.90;;;;;;6751791;88;20185;-80
2021/09/28 15:52:22;;;;;;;5.82;1.17;;;17.20;99.90;;;;;;6752442;88;20282;-76
2021/09/28 16:12:26;;;;;;;6.40;1.42;;;17.00;99.90;;;;;;6747671;88;20220;-81
2021/09/28 16:22:26;;;;;;;4.45;1.25;;;17.00;99.90;;;;;;6760341;88;20978;-78
2021/09/28 16:32:27;;;;;;;7.35;1.75;;;16.80;99.90;;;;;;6758245;88;20241;-80
2021/09/28 16:42:27;;;;;;;6.10;1.55;;;16.70;99.90;;;;;;6747247;88;20311;-83
2021/09/28 16:52:28;;;;;;;4.75;1.40;;;16.70;99.90;;;;;;6759988;88;20200;-82
2021/09/28 17:02:28;;;;;;;7.20;1.33;;;16.40;99.90;;;;;;6747391;88;20193;-79
2021/09/28 17:12:30;;;;;;;5.85;1.75;;;16.40;99.90;;;;;;6743578;88;20676;-79
2021/09/28 17:22:31;;;;;;;7.80;1.30;;;16.30;99.90;;;;;;6766175;88;20153;-80
2021/09/28 17:32:31;;;;;;;8.80;1.67;;;15.90;99.90;;;;;;6778987;88;20183;-81
2021/09/28 17:42:32;;;;;;;7.80;2.35;;;15.70;99.90;;;;;;6793093;76;20164;-84
2021/09/28 17:52:35;;;;;;;6.25;2.35;;;15.50;99.90;;;;;;6774735;87;20183;-78
2021/09/28 18:02:36;;;;;;;5.05;1.98;;;15.00;99.90;;;;;;6748208;87;20188;-78
2021/09/28 18:12:37;;;;;;;7.62;2.72;;;15.00;99.90;;;;;;6742932;88;20611;-78
2021/09/28 18:22:40;;;;;;;7.70;2.75;;;14.60;99.90;;;;;;6741648;88;20768;-79
2021/09/28 18:32:42;;;;;;;5.25;2.10;;;14.40;99.90;;;;;;6741302;88;20753;-79
2021/09/28 18:43:17;;;;;;;;;;;;;;;;;;;;;
2021/09/28 18:53:05;;;;;;;10.77;2.37;;;14.30;99.90;;;;;;6726802;88;20185;-81
2021/09/28 19:03:06;;;;;;;6.07;2.20;;;14.10;99.90;;;;;;6737563;88;20188;-80
2021/09/28 19:13:07;;;;;;;6.07;2.40;;;14.00;99.90;;;;;;6741468;88;20254;-79
2021/09/28 19:23:08;;;;;;;8.02;1.83;;;13.90;99.90;;;;;;6740102;88;20189;-77
2021/09/28 19:33:08;;;;;;;8.80;1.67;;;13.90;99.90;;;;;;6739927;88;20652;-78
2021/09/28 19:43:09;;;;;;;5.97;1.80;;;13.70;99.90;;;;;;6741697;88;20229;-80
2021/09/28 19:53:10;;;;;;;11.95;3.35;;;13.60;99.90;;;;;;6744087;88;20959;-78
2021/09/28 20:03:24;;;;;;;7.20;1.65;;;13.60;99.90;;;;;;6741651;88;20243;-79
2021/09/28 20:44:22;;;;;;;4.72;2.10;;;13.50;99.90;;;;;;6744158;88;20249;-80
2021/09/28 20:54:22;;;;;;;5.90;2.47;;;13.50;99.90;;;;;;6744075;88;20363;-80
2021/09/28 21:04:23;;;;;;;7.47;2.57;;;13.40;99.90;;;;;;6745364;88;22285;-80
2021/09/28 21:14:24;;;;;;;10.55;2.10;;;13.30;99.90;;;;;;6762224;88;20506;-79
2021/09/28 21:24:26;;;;;;;4.28;1.70;;;13.30;99.90;;;;;;6760853;88;20708;-79
2021/09/28 21:34:28;;;;;;;7.87;2.03;;;13.20;99.90;;;;;;6759129;88;20762;-78
2021/09/28 21:44:29;;;;;;;7.72;2.25;;;13.00;99.90;;;;;;6757786;88;20197;-78
2021/09/28 21:54:29;;;;;;;5.85;2.30;;;13.10;99.90;;;;;;6758213;88;20204;-78
2021/09/28 22:04:30;;;;;;;7.57;2.50;;;12.90;99.90;;;;;;6752109;77;20756;-77
2021/09/28 22:14:31;;;;;;;9.25;2.75;;;12.80;99.90;;;;;;6754972;87;20208;-79
2021/09/28 22:24:32;;;;;;;7.62;2.50;;;12.60;99.90;;;;;;6763810;87;20288;-79
2021/09/28 22:34:32;;;;;;;7.70;2.30;;;12.50;99.90;;;;;;6773008;87;20185;-80
2021/09/28 22:44:36;;;;;;;7.78;2.17;;;12.30;99.90;;;;;;6770213;87;20316;-77
2021/09/28 22:54:37;;;;;;;8.48;1.92;;;12.50;99.90;;;;;;6770750;87;20183;-79
2021/09/28 23:04:38;;;;;;;8.98;2.05;;;12.50;99.90;;;;;;6775232;87;20189;-79
2021/09/28 23:14:38;;;;;;;11.15;2.30;;;12.40;99.90;;;;;;6779652;87;20183;-79
2021/09/28 23:24:39;;;;;;;7.80;2.05;;;12.40;99.90;;;;;;6771117;87;20220;-79
2021/09/28 23:34:39;;;;;;;4.35;1.98;;;12.30;99.90;;;;;;6776830;87;20621;-79
2021/09/28 23:44:40;;;;;;;6.93;1.92;;;12.20;99.90;;;;;;6774134;87;20833;-79
2021/09/28 23:54:41;;;;;;;6.97;2.10;;;12.10;99.90;;;;;;6777061;87;20224;-79
